createdAt,value
2023-04-04T00:02:24.916Z,3.38
2023-04-04T00:05:04.285Z,3.36
2023-04-04T00:07:43.783Z,3.35
2023-04-04T00:10:23.804Z,3.34
2023-04-04T00:13:04.185Z,3.33
2023-04-04T00:15:48.643Z,3.33
2023-04-04T00:18:28.067Z,3.33
2023-04-04T00:21:07.578Z,3.33
2023-04-04T00:23:46.870Z,3.32
2023-04-04T00:26:26.185Z,3.30
2023-04-04T00:29:05.476Z,3.29
2023-04-04T00:31:50.132Z,3.27
2023-04-04T00:34:29.635Z,3.24
2023-04-04T00:37:09.194Z,3.22
2023-04-04T00:39:48.982Z,3.19
2023-04-04T00:42:29.024Z,3.16
2023-04-04T00:45:08.696Z,3.13
2023-04-04T00:47:55.019Z,3.09
2023-04-04T00:50:34.499Z,3.04
2023-04-04T00:53:13.899Z,3.00
2023-04-04T00:55:53.277Z,2.97
2023-04-04T00:58:33.892Z,2.91
2023-04-04T01:01:13.893Z,2.87
2023-04-04T01:03:59.119Z,2.83
2023-04-04T01:06:38.538Z,2.80
2023-04-04T01:09:18.460Z,2.79
2023-04-04T01:11:58.501Z,2.76
2023-04-04T01:14:39.018Z,2.73
2023-04-04T01:17:18.590Z,2.73
2023-04-04T01:20:10.805Z,2.72
2023-04-04T01:22:53.919Z,2.70
2023-04-04T01:25:40.217Z,2.69
2023-04-04T01:28:19.513Z,2.67
2023-04-04T01:30:59.217Z,2.65
2023-04-04T01:33:45.718Z,2.63
2023-04-04T01:36:36.566Z,2.62
2023-04-04T01:39:29.868Z,2.61
2023-04-04T01:42:15.526Z,2.59
2023-04-04T01:44:55.392Z,2.57
2023-04-04T01:47:35.369Z,2.56
2023-04-04T01:50:16.610Z,2.56
2023-04-04T01:52:56.430Z,2.56
2023-04-04T01:55:35.854Z,2.55
2023-04-04T01:58:20.405Z,2.52
2023-04-04T02:00:59.719Z,2.51
2023-04-04T02:03:39.207Z,2.49
2023-04-04T02:06:18.862Z,2.48
2023-04-04T02:08:58.373Z,2.46
2023-04-04T02:11:37.815Z,2.46
2023-04-04T02:14:22.835Z,2.46
2023-04-04T02:17:02.304Z,2.48
2023-04-04T02:19:42.088Z,2.47
2023-04-04T02:22:21.370Z,2.46
2023-04-04T02:25:03.886Z,2.44
2023-04-04T02:27:43.164Z,2.40
2023-04-04T02:30:28.306Z,2.38
2023-04-04T02:33:07.620Z,2.37
2023-04-04T02:35:47.098Z,2.36
2023-04-04T02:38:26.899Z,2.34
2023-04-04T02:41:06.140Z,2.32
2023-04-04T02:43:45.500Z,2.33
2023-04-04T02:46:29.962Z,2.33
2023-04-04T02:49:09.265Z,2.33
2023-04-04T02:51:48.932Z,2.33
2023-04-04T02:54:28.319Z,2.32
2023-04-04T02:57:07.645Z,2.34
2023-04-04T02:59:46.969Z,2.35
2023-04-04T03:02:31.625Z,2.35
2023-04-04T03:05:11.165Z,2.34
2023-04-04T03:07:50.448Z,2.34
2023-04-04T03:10:31.038Z,2.33
2023-04-04T03:13:10.306Z,2.32
2023-04-04T03:15:50.384Z,2.31
2023-04-04T03:18:35.877Z,2.30
2023-04-04T03:21:15.147Z,2.30
2023-04-04T03:23:54.633Z,2.32
2023-04-04T03:26:34.640Z,2.33
2023-04-04T03:29:13.932Z,2.33
2023-04-04T03:31:53.267Z,2.33
2023-04-04T03:34:37.902Z,2.34
2023-04-04T03:37:17.479Z,2.35
2023-04-04T03:39:56.859Z,2.32
2023-04-04T03:42:40.144Z,2.30
2023-04-04T03:45:20.105Z,2.29
2023-04-04T03:47:59.672Z,2.29
2023-04-04T03:50:44.208Z,2.30
2023-04-04T03:53:23.480Z,2.30
2023-04-04T03:56:03.809Z,2.29
2023-04-04T03:58:43.369Z,2.29
2023-04-04T04:01:22.701Z,2.27
2023-04-04T04:04:02.381Z,2.26
2023-04-04T04:06:46.822Z,2.25
2023-04-04T04:09:26.150Z,2.22
2023-04-04T04:12:05.513Z,2.20
2023-04-04T04:14:44.783Z,2.20
2023-04-04T04:17:24.303Z,2.21
2023-04-04T04:20:03.624Z,2.19
2023-04-04T04:22:54.311Z,2.17
2023-04-04T04:25:33.820Z,2.13
2023-04-04T04:28:13.639Z,2.09
2023-04-04T04:30:53.585Z,2.07
2023-04-04T04:33:36.248Z,2.06
2023-04-04T04:36:16.806Z,2.05
2023-04-04T04:39:01.221Z,2.04
2023-04-04T04:41:40.451Z,2.04
2023-04-04T04:44:20.922Z,2.05
2023-04-04T04:47:00.231Z,2.06
2023-04-04T04:49:39.639Z,2.06
2023-04-04T04:52:20.457Z,2.04
2023-04-04T04:55:04.846Z,2.02
2023-04-04T04:57:44.134Z,1.98
2023-04-04T05:00:24.961Z,1.95
2023-04-04T05:03:04.379Z,1.93
2023-04-04T05:05:43.930Z,1.92
2023-04-04T05:08:23.696Z,1.90
2023-04-04T05:11:08.110Z,1.90
2023-04-04T05:13:47.529Z,1.91
2023-04-04T05:16:28.567Z,1.91
2023-04-04T05:19:07.873Z,1.91
2023-04-04T05:21:48.798Z,1.91
2023-04-04T05:24:28.806Z,1.94
2023-04-04T05:27:13.155Z,1.96
2023-04-04T05:29:53.031Z,1.98
2023-04-04T05:32:32.385Z,2.00
2023-04-04T05:35:12.629Z,2.02
2023-04-04T05:37:51.907Z,2.04
2023-04-04T05:40:31.415Z,2.07
2023-04-04T05:43:15.836Z,2.10
2023-04-04T05:45:55.450Z,2.13
2023-04-04T05:48:34.949Z,2.17
2023-04-04T05:51:14.320Z,2.21
2023-04-04T05:53:53.663Z,2.24
2023-04-04T05:56:32.986Z,2.28
2023-04-04T05:59:17.486Z,2.32
2023-04-04T06:01:57.126Z,2.35
2023-04-04T06:04:36.481Z,2.37
2023-04-04T06:07:15.789Z,2.39
2023-04-04T06:09:55.087Z,2.41
2023-04-04T06:12:34.341Z,2.45
2023-04-04T06:15:19.071Z,2.48
2023-04-04T06:17:58.350Z,2.52
2023-04-04T06:20:37.898Z,2.57
2023-04-04T06:23:17.491Z,2.61
2023-04-04T06:25:56.927Z,2.68
2023-04-04T06:28:36.243Z,2.73
2023-04-04T06:31:20.691Z,2.77
2023-04-04T06:34:00.302Z,2.80
2023-04-04T06:36:39.840Z,2.84
2023-04-04T06:39:19.148Z,2.87
2023-04-04T06:41:58.467Z,2.92
2023-04-04T06:44:37.778Z,2.96
2023-04-04T06:47:22.747Z,3.01
2023-04-04T06:50:02.237Z,3.06
2023-04-04T06:52:41.627Z,3.10
2023-04-04T06:55:21.008Z,3.13
2023-04-04T06:58:00.352Z,3.17
2023-04-04T07:00:39.840Z,3.22
2023-04-04T07:03:24.982Z,3.26
2023-04-04T07:06:04.547Z,3.32
2023-04-04T07:08:44.025Z,3.38
2023-04-04T07:11:24.991Z,3.42
2023-04-04T07:14:04.360Z,3.47
2023-04-04T07:16:45.673Z,3.51
2023-04-04T07:19:30.419Z,3.55
2023-04-04T07:22:09.982Z,3.59
2023-04-04T07:24:49.531Z,3.65
2023-04-04T07:27:28.906Z,3.71
2023-04-04T07:30:08.488Z,3.79
2023-04-04T07:32:48.888Z,3.86
2023-04-04T07:35:33.462Z,3.94
2023-04-04T07:38:12.837Z,3.98
2023-04-04T07:40:52.314Z,4.03
2023-04-04T07:43:31.856Z,4.10
2023-04-04T07:46:11.452Z,4.16
2023-04-04T07:48:51.801Z,4.22
2023-04-04T07:51:36.777Z,4.27
2023-04-04T07:54:16.243Z,4.33
2023-04-04T07:56:55.576Z,4.38
2023-04-04T07:59:34.889Z,4.45
2023-04-04T08:02:16.765Z,4.51
2023-04-04T08:04:58.816Z,4.59
2023-04-04T08:07:51.882Z,4.68
2023-04-04T08:10:33.174Z,4.78
2023-04-04T08:13:19.865Z,4.89
2023-04-04T08:16:04.415Z,5.03
2023-04-04T08:19:08.794Z,5.13
2023-04-04T08:21:50.521Z,5.21
2023-04-04T08:24:34.992Z,5.27
2023-04-04T08:27:16.143Z,5.35
2023-04-04T08:29:55.624Z,5.41
2023-04-04T08:32:35.003Z,5.42
2023-04-04T08:35:15.192Z,5.45
2023-04-04T08:37:54.830Z,5.51
2023-04-04T08:40:39.818Z,5.58
2023-04-04T08:43:21.272Z,5.71
2023-04-04T08:46:16.797Z,5.83
2023-04-04T08:49:02.416Z,6.04
2023-04-04T08:51:47.913Z,6.15
2023-04-04T08:54:30.095Z,6.20
2023-04-04T08:57:35.112Z,6.36
2023-04-04T09:00:19.667Z,6.63
2023-04-04T09:03:06.623Z,6.76
2023-04-04T09:05:47.622Z,6.90
2023-04-04T09:08:29.162Z,7.08
2023-04-04T09:11:14.406Z,7.29
2023-04-04T09:13:59.886Z,7.49
2023-04-04T09:16:39.333Z,7.63
2023-04-04T09:19:18.611Z,7.76
2023-04-04T09:21:58.057Z,7.87
2023-04-04T09:24:54.031Z,7.95
2023-04-04T09:27:40.445Z,8.08
2023-04-04T09:30:27.781Z,8.18
2023-04-04T09:33:18.182Z,8.30
2023-04-04T09:36:16.020Z,8.37
2023-04-04T09:39:07.426Z,8.46
2023-04-04T09:49:06.923Z,8.81
2023-04-04T09:52:02.146Z,8.96
2023-04-04T09:55:17.698Z,9.08
2023-04-04T09:58:07.941Z,9.17
2023-04-04T10:00:53.049Z,9.24
2023-04-04T10:03:47.483Z,9.28
2023-04-04T10:06:28.781Z,9.32
2023-04-04T10:09:15.542Z,9.36
2023-04-04T10:11:54.973Z,9.44
2023-04-04T10:14:42.338Z,9.50
2023-04-04T10:17:21.755Z,9.55
2023-04-04T10:20:01.792Z,9.56
2023-04-04T10:22:42.027Z,9.56
2023-04-04T10:25:27.850Z,9.65
2023-04-04T10:28:07.220Z,9.74
2023-04-04T10:31:05.328Z,9.85
2023-04-04T10:33:55.415Z,9.91
2023-04-04T10:36:43.136Z,10.02
2023-04-04T10:39:30.883Z,10.17
2023-04-04T10:42:15.452Z,10.31
2023-04-04T10:44:55.200Z,10.45
2023-04-04T10:47:35.143Z,10.58
2023-04-04T10:50:16.925Z,10.81
2023-04-04T10:52:59.640Z,10.96
2023-04-04T10:55:42.669Z,11.02
2023-04-04T10:58:29.110Z,11.06
2023-04-04T11:01:08.629Z,11.06
2023-04-04T11:04:20.738Z,11.02
2023-04-04T11:07:18.217Z,11.15
2023-04-04T11:10:02.401Z,11.19
2023-04-04T11:13:02.228Z,11.03
2023-04-04T11:16:03.302Z,10.97
2023-04-04T11:18:55.062Z,11.04
2023-04-04T11:21:40.491Z,11.12
2023-04-04T11:24:23.693Z,11.32
2023-04-04T11:27:03.015Z,11.52
2023-04-04T11:29:58.626Z,11.74
2023-04-04T11:33:03.734Z,11.99
2023-04-04T11:35:47.032Z,12.06
2023-04-04T11:38:28.228Z,12.12
2023-04-04T11:41:09.141Z,12.27
2023-04-04T11:43:52.734Z,12.39
2023-04-04T11:46:36.639Z,12.52
2023-04-04T11:49:21.731Z,12.64
2023-04-04T11:52:01.021Z,12.72
2023-04-04T11:54:40.870Z,12.84
2023-04-04T11:57:21.606Z,12.93
2023-04-04T12:00:01.169Z,12.97
2023-04-04T12:02:40.827Z,13.20
2023-04-04T12:05:25.598Z,13.19
2023-04-04T12:08:06.998Z,13.08
2023-04-04T12:10:47.994Z,12.63
2023-04-04T12:13:27.275Z,12.28
2023-04-04T12:16:06.627Z,11.96
2023-04-04T12:18:45.993Z,11.96
2023-04-04T12:21:31.148Z,12.93
2023-04-04T12:24:10.712Z,13.38
2023-04-04T12:26:52.955Z,13.53
2023-04-04T12:29:37.417Z,13.68
2023-04-04T12:32:17.057Z,13.93
2023-04-04T12:34:56.787Z,14.06
2023-04-04T12:37:41.371Z,14.16
2023-04-04T12:40:22.977Z,14.31
2023-04-04T12:43:02.397Z,14.48
2023-04-04T12:45:45.518Z,14.50
2023-04-04T12:48:24.988Z,14.45
2023-04-04T12:51:06.056Z,14.53
2023-04-04T12:53:59.592Z,14.71
2023-04-04T12:56:39.362Z,14.95
2023-04-04T12:59:19.071Z,15.12
2023-04-04T13:01:58.560Z,15.32
2023-04-04T13:04:40.988Z,15.46
2023-04-04T13:07:30.405Z,15.10
2023-04-04T13:10:17.264Z,14.71
2023-04-04T13:13:07.731Z,14.02
2023-04-04T13:15:57.510Z,14.03
2023-04-04T13:18:44.428Z,14.37
2023-04-04T13:21:23.761Z,14.91
2023-04-04T13:24:03.034Z,15.15
2023-04-04T13:26:47.436Z,15.30
2023-04-04T13:29:28.098Z,15.61
2023-04-04T13:32:08.050Z,15.87
2023-04-04T13:34:47.317Z,15.92
2023-04-04T13:37:27.774Z,15.93
2023-04-04T13:40:07.140Z,15.44
2023-04-04T13:42:51.861Z,15.90
2023-04-04T13:45:31.522Z,17.41
2023-04-04T13:48:11.039Z,18.46
2023-04-04T13:50:52.617Z,19.02
2023-04-04T13:53:31.931Z,19.28
2023-04-04T13:56:17.613Z,19.70
2023-04-04T13:59:03.286Z,20.07
2023-04-04T14:01:42.811Z,20.27
2023-04-04T14:04:24.043Z,20.85
2023-04-04T14:07:03.713Z,21.40
2023-04-04T14:09:42.998Z,21.53
2023-04-04T14:12:22.344Z,21.69
2023-04-04T14:15:06.733Z,21.85
2023-04-04T14:17:46.061Z,21.13
2023-04-04T14:20:25.607Z,20.22
2023-04-04T14:23:04.885Z,19.90
2023-04-04T14:25:44.152Z,20.23
2023-04-04T14:28:23.571Z,20.51
2023-04-04T14:31:08.205Z,20.68
2023-04-04T14:33:47.602Z,21.10
2023-04-04T14:36:27.321Z,21.31
2023-04-04T14:39:06.602Z,21.65
2023-04-04T14:41:45.906Z,21.96
2023-04-04T14:44:26.278Z,21.98
2023-04-04T14:47:10.755Z,22.00
2023-04-04T14:49:50.000Z,22.04
2023-04-04T14:52:30.022Z,21.93
2023-04-04T14:55:10.332Z,21.79
2023-04-04T14:58:01.133Z,21.79
2023-04-04T15:00:41.940Z,21.65
2023-04-04T15:03:26.332Z,21.45
2023-04-04T15:06:06.171Z,21.34
2023-04-04T15:08:45.615Z,21.35
2023-04-04T15:11:25.072Z,21.24
2023-04-04T15:14:17.287Z,23.17
2023-04-04T15:16:56.590Z,21.42
2023-04-04T15:19:35.855Z,21.29
2023-04-04T15:22:15.167Z,21.36
2023-04-04T15:24:54.429Z,21.39
2023-04-04T15:27:33.752Z,21.13
2023-04-04T15:30:19.580Z,20.47
2023-04-04T15:32:58.962Z,19.03
2023-04-04T15:35:38.378Z,18.36
2023-04-04T15:38:17.669Z,18.38
2023-04-04T15:40:56.930Z,17.94
2023-04-04T15:43:36.181Z,17.77
2023-04-04T15:46:20.595Z,17.42
2023-04-04T15:48:59.863Z,16.68
2023-04-04T15:51:40.669Z,15.42
2023-04-04T15:54:20.084Z,14.44
2023-04-04T15:56:59.377Z,14.18
2023-04-04T15:59:38.685Z,14.02
2023-04-04T16:02:23.401Z,14.07
2023-04-04T16:05:02.821Z,14.21
2023-04-04T16:07:42.241Z,14.21
2023-04-04T16:10:21.947Z,14.35
2023-04-04T16:13:01.297Z,14.26
2023-04-04T16:15:40.588Z,14.41
2023-04-04T16:18:25.065Z,15.27
2023-04-04T16:21:04.388Z,15.80
2023-04-04T16:23:44.981Z,15.93
2023-04-04T16:26:24.866Z,16.02
2023-04-04T16:29:04.437Z,15.72
2023-04-04T16:31:43.842Z,15.28
2023-04-04T16:34:28.205Z,14.32
2023-04-04T16:37:07.591Z,13.68
2023-04-04T16:39:47.844Z,13.31
2023-04-04T16:42:27.151Z,13.23
2023-04-04T16:45:09.389Z,13.26
2023-04-04T16:47:48.705Z,13.28
2023-04-04T16:50:33.163Z,13.41
2023-04-04T16:53:12.771Z,13.46
2023-04-04T16:55:52.153Z,13.41
2023-04-04T16:58:31.434Z,13.20
2023-04-04T17:01:10.807Z,13.08
2023-04-04T17:03:50.122Z,13.02
2023-04-04T17:06:34.558Z,12.98
2023-04-04T17:09:14.166Z,12.93
2023-04-04T17:11:53.474Z,12.81
2023-04-04T17:14:33.353Z,12.74
2023-04-04T17:17:12.769Z,12.70
2023-04-04T17:19:52.282Z,12.63
2023-04-04T17:22:36.733Z,12.52
2023-04-04T17:25:16.229Z,12.29
2023-04-04T17:27:55.507Z,11.89
2023-04-04T17:30:34.823Z,11.62
2023-04-04T17:33:15.828Z,11.43
2023-04-04T17:35:55.142Z,11.30
2023-04-04T17:38:40.464Z,11.16
2023-04-04T17:41:20.368Z,11.00
2023-04-04T17:43:59.656Z,10.83
2023-04-04T17:46:39.154Z,10.67
2023-04-04T17:49:20.804Z,10.55
2023-04-04T17:52:00.236Z,10.40
2023-04-04T17:54:45.138Z,10.29
2023-04-04T17:57:24.470Z,10.18
2023-04-04T18:00:04.005Z,10.11
2023-04-04T18:02:43.414Z,10.02
2023-04-04T18:05:23.333Z,9.94
2023-04-04T18:08:05.963Z,9.84
2023-04-04T18:10:50.322Z,9.76
2023-04-04T18:13:29.626Z,9.69
2023-04-04T18:16:08.987Z,9.63
2023-04-04T18:18:48.417Z,9.55
2023-04-04T18:21:27.789Z,9.47
2023-04-04T18:24:08.601Z,9.37
2023-04-04T18:26:53.414Z,9.27
2023-04-04T18:29:33.779Z,9.21
2023-04-04T18:32:13.069Z,9.14
2023-04-04T18:34:52.890Z,9.04
2023-04-04T18:37:32.300Z,8.96
2023-04-04T18:40:12.617Z,8.86
2023-04-04T18:42:59.748Z,8.76
2023-04-04T18:45:40.614Z,8.68
2023-04-04T18:48:20.118Z,8.57
2023-04-04T18:50:59.453Z,8.48
2023-04-04T18:53:38.692Z,8.40
2023-04-04T18:56:18.028Z,8.32
2023-04-04T18:59:02.411Z,8.24
2023-04-04T19:01:42.031Z,8.16
2023-04-04T19:04:26.925Z,8.08
2023-04-04T19:07:11.707Z,8.00
2023-04-04T19:09:53.288Z,7.91
2023-04-04T19:12:32.640Z,7.83
2023-04-04T19:15:17.737Z,7.77
2023-04-04T19:17:57.277Z,7.70
2023-04-04T19:20:36.700Z,7.64
2023-04-04T19:23:16.716Z,7.56
2023-04-04T19:25:56.910Z,7.48
2023-04-04T19:28:36.359Z,7.41
2023-04-04T19:31:30.965Z,7.34
2023-04-04T19:34:10.986Z,7.24
2023-04-04T19:36:50.342Z,7.15
2023-04-04T19:39:31.737Z,7.07
2023-04-04T19:42:14.110Z,6.97
2023-04-04T19:44:53.381Z,6.87
2023-04-04T19:47:37.848Z,6.80
2023-04-04T19:50:41.866Z,6.73
2023-04-04T19:53:28.992Z,6.63
2023-04-04T19:56:16.820Z,6.57
2023-04-04T19:59:01.540Z,6.51
2023-04-04T20:01:50.286Z,6.45
2023-04-04T20:04:47.697Z,6.38
2023-04-04T20:07:27.143Z,6.32
2023-04-04T20:10:06.436Z,6.28
2023-04-04T20:12:46.191Z,6.22
2023-04-04T20:16:02.105Z,6.15
2023-04-04T20:18:43.275Z,6.09
2023-04-04T20:21:29.744Z,6.05
2023-04-04T20:24:11.866Z,6.00
2023-04-04T20:26:59.473Z,5.95
2023-04-04T20:29:42.551Z,5.90
2023-04-04T20:32:21.975Z,5.87
2023-04-04T20:35:01.513Z,5.85
2023-04-04T20:37:46.173Z,5.80
2023-04-04T20:40:45.488Z,5.74
2023-04-04T20:43:24.783Z,5.64
2023-04-04T20:46:04.131Z,5.57
2023-04-04T20:48:48.431Z,5.50
2023-04-04T20:51:32.068Z,5.43
2023-04-04T20:54:16.780Z,5.36
2023-04-04T20:56:59.449Z,5.31
2023-04-04T20:59:44.459Z,5.25
2023-04-04T21:02:25.355Z,5.19
2023-04-04T21:05:04.964Z,5.12
2023-04-04T21:07:48.932Z,5.07
2023-04-04T21:10:57.638Z,5.00
2023-04-04T21:13:42.703Z,4.94
2023-04-04T21:16:24.185Z,4.90
2023-04-04T21:19:06.274Z,4.86
2023-04-04T21:21:45.843Z,4.82
2023-04-04T21:24:25.185Z,4.78
2023-04-04T21:27:14.055Z,4.74
2023-04-04T21:29:53.649Z,4.71
2023-04-04T21:32:33.487Z,4.68
2023-04-04T21:35:16.786Z,4.64
2023-04-04T21:37:56.170Z,4.61
2023-04-04T21:40:35.437Z,4.57
2023-04-04T21:43:19.776Z,4.53
2023-04-04T21:45:59.092Z,4.47
2023-04-04T21:48:38.374Z,4.44
2023-04-04T21:51:17.621Z,4.40
2023-04-04T21:53:57.417Z,4.36
2023-04-04T21:56:39.240Z,4.33
2023-04-04T21:59:23.724Z,4.32
2023-04-04T22:02:03.151Z,4.30
2023-04-04T22:04:42.677Z,4.29
2023-04-04T22:07:21.978Z,4.28
2023-04-04T22:10:01.229Z,4.26
2023-04-04T22:12:41.609Z,4.24
2023-04-04T22:15:30.667Z,4.21
2023-04-04T22:18:16.197Z,4.18
2023-04-04T22:20:55.939Z,4.18
2023-04-04T22:23:36.344Z,4.17
2023-04-04T22:26:21.422Z,4.17
2023-04-04T22:29:00.681Z,4.16
2023-04-04T22:31:45.099Z,4.17
2023-04-04T22:34:24.468Z,4.18
2023-04-04T22:37:04.730Z,4.17
2023-04-04T22:39:43.999Z,4.16
2023-04-04T22:42:23.334Z,4.14
2023-04-04T22:45:02.655Z,4.12
2023-04-04T22:47:48.372Z,4.10
2023-04-04T22:50:29.392Z,4.08
2023-04-04T22:53:13.972Z,4.05
2023-04-04T22:55:53.213Z,4.03
2023-04-04T22:58:33.003Z,4.00
2023-04-04T23:01:12.713Z,3.97
2023-04-04T23:03:57.154Z,3.94
2023-04-04T23:06:37.008Z,3.91
2023-04-04T23:09:16.366Z,3.90
2023-04-04T23:11:56.078Z,3.90
2023-04-04T23:14:39.897Z,3.89
2023-04-04T23:17:19.192Z,3.88
2023-04-04T23:20:04.005Z,3.89
2023-04-04T23:22:44.921Z,3.90
2023-04-04T23:25:25.155Z,3.90
2023-04-04T23:28:04.661Z,3.90
2023-04-04T23:30:43.935Z,3.91
2023-04-04T23:33:23.184Z,3.91
2023-04-04T23:36:07.581Z,3.90
2023-04-04T23:38:46.896Z,3.90
2023-04-04T23:41:26.128Z,3.89
2023-04-04T23:44:05.463Z,3.91
2023-04-04T23:46:45.173Z,3.90
2023-04-04T23:49:24.577Z,3.88
2023-04-04T23:52:09.009Z,3.87
2023-04-04T23:54:48.272Z,3.87
2023-04-04T23:57:27.700Z,3.85
